sensor_id;sensor_type;location;lat;lon;timestamp;temperature;humidity
19586;DHT22;9939;49.246;9.106;2024-03-23T00:54:13;10.50;99.90
19586;DHT22;9939;49.246;9.106;2024-03-23T00:56:39;10.50;99.90
19586;DHT22;9939;49.246;9.106;2024-03-23T00:59:05;10.50;99.90
19586;DHT22;9939;49.246;9.106;2024-03-23T01:01:31;10.50;99.90
19586;DHT22;9939;49.246;9.106;2024-03-23T01:03:57;10.20;99.90
19586;DHT22;9939;49.246;9.106;2024-03-23T01:06:23;10.10;99.90
19586;DHT22;9939;49.246;9.106;2024-03-23T01:08:49;10.20;99.90
19586;DHT22;9939;49.246;9.106;2024-03-23T01:11:15;10.20;99.90
19586;DHT22;9939;49.246;9.106;2024-03-23T01:13:42;10.10;99.90
19586;DHT22;9939;49.246;9.106;2024-03-23T01:16:08;10.00;99.90
19586;DHT22;9939;49.246;9.106;2024-03-23T01:18:33;10.30;99.90
19586;DHT22;9939;49.246;9.106;2024-03-23T01:20:59;10.00;99.90
19586;DHT22;9939;49.246;9.106;2024-03-23T01:23:25;10.00;99.90
19586;DHT22;9939;49.246;9.106;2024-03-23T01:25:52;9.80;99.90
19586;DHT22;9939;49.246;9.106;2024-03-23T01:28:20;9.80;99.90
19586;DHT22;9939;49.246;9.106;2024-03-23T01:30:47;9.80;99.90
19586;DHT22;9939;49.246;9.106;2024-03-23T01:33:13;9.70;99.90
19586;DHT22;9939;49.246;9.106;2024-03-23T01:35:39;9.70;99.90
19586;DHT22;9939;49.246;9.106;2024-03-23T01:38:05;9.80;99.90
19586;DHT22;9939;49.246;9.106;2024-03-23T01:40:31;9.70;99.90
19586;DHT22;9939;49.246;9.106;2024-03-23T01:42:59;9.60;99.90
19586;DHT22;9939;49.246;9.106;2024-03-23T01:45:28;9.50;99.90
19586;DHT22;9939;49.246;9.106;2024-03-23T01:47:55;9.40;99.90
19586;DHT22;9939;49.246;9.106;2024-03-23T01:50:21;9.40;99.90
19586;DHT22;9939;49.246;9.106;2024-03-23T01:52:48;9.30;99.90
19586;DHT22;9939;49.246;9.106;2024-03-23T01:55:14;9.20;99.90
19586;DHT22;9939;49.246;9.106;2024-03-23T01:57:41;9.00;99.90
19586;DHT22;9939;49.246;9.106;2024-03-23T02:00:07;8.90;99.90
19586;DHT22;9939;49.246;9.106;2024-03-23T02:02:46;8.80;99.90
19586;DHT22;9939;49.246;9.106;2024-03-23T02:05:13;8.90;99.90
19586;DHT22;9939;49.246;9.106;2024-03-23T02:07:40;8.90;99.90
19586;DHT22;9939;49.246;9.106;2024-03-23T02:10:10;8.90;99.90
19586;DHT22;9939;49.246;9.106;2024-03-23T02:12:39;8.90;99.90
19586;DHT22;9939;49.246;9.106;2024-03-23T02:15:05;9.00;99.90
19586;DHT22;9939;49.246;9.106;2024-03-23T02:17:33;9.00;99.90
19586;DHT22;9939;49.246;9.106;2024-03-23T02:20:00;9.00;99.90
19586;DHT22;9939;49.246;9.106;2024-03-23T02:22:36;9.10;99.90
19586;DHT22;9939;49.246;9.106;2024-03-23T02:25:04;9.30;99.90
19586;DHT22;9939;49.246;9.106;2024-03-23T02:27:30;9.60;99.90
19586;DHT22;9939;49.246;9.106;2024-03-23T02:29:56;9.50;99.90
19586;DHT22;9939;49.246;9.106;2024-03-23T02:32:22;9.70;99.90
19586;DHT22;9939;49.246;9.106;2024-03-23T02:34:48;9.70;99.90
19586;DHT22;9939;49.246;9.106;2024-03-23T02:37:14;10.00;99.90
19586;DHT22;9939;49.246;9.106;2024-03-23T02:39:40;9.90;99.90
19586;DHT22;9939;49.246;9.106;2024-03-23T02:42:06;9.90;99.90
19586;DHT22;9939;49.246;9.106;2024-03-23T02:44:32;10.00;99.90
19586;DHT22;9939;49.246;9.106;2024-03-23T02:46:58;9.80;99.90
19586;DHT22;9939;49.246;9.106;2024-03-23T02:49:25;9.80;99.90
19586;DHT22;9939;49.246;9.106;2024-03-23T02:51:51;9.80;99.90
19586;DHT22;9939;49.246;9.106;2024-03-23T02:54:17;9.70;99.90
19586;DHT22;9939;49.246;9.106;2024-03-23T02:56:43;9.70;99.90
19586;DHT22;9939;49.246;9.106;2024-03-23T02:59:09;9.60;99.90
19586;DHT22;9939;49.246;9.106;2024-03-23T03:01:36;9.70;99.90
19586;DHT22;9939;49.246;9.106;2024-03-23T03:04:02;9.80;99.90
19586;DHT22;9939;49.246;9.106;2024-03-23T03:06:29;10.10;99.90
19586;DHT22;9939;49.246;9.106;2024-03-23T03:08:55;10.40;99.90
19586;DHT22;9939;49.246;9.106;2024-03-23T03:11:21;10.80;99.90
19586;DHT22;9939;49.246;9.106;2024-03-23T03:13:48;11.00;99.90
19586;DHT22;9939;49.246;9.106;2024-03-23T03:16:14;11.30;99.90
19586;DHT22;9939;49.246;9.106;2024-03-23T03:18:40;11.40;99.90
19586;DHT22;9939;49.246;9.106;2024-03-23T03:21:06;11.50;99.90
19586;DHT22;9939;49.246;9.106;2024-03-23T03:23:37;11.60;99.90
19586;DHT22;9939;49.246;9.106;2024-03-23T03:26:07;11.70;99.90
19586;DHT22;9939;49.246;9.106;2024-03-23T03:28:33;11.80;99.90
19586;DHT22;9939;49.246;9.106;2024-03-23T03:30:59;11.70;99.90
19586;DHT22;9939;49.246;9.106;2024-03-23T03:33:27;11.80;99.90
19586;DHT22;9939;49.246;9.106;2024-03-23T03:35:53;11.90;99.90
19586;DHT22;9939;49.246;9.106;2024-03-23T03:38:19;11.90;99.90
19586;DHT22;9939;49.246;9.106;2024-03-23T03:40:45;11.80;99.90
19586;DHT22;9939;49.246;9.106;2024-03-23T03:43:11;11.80;99.90
19586;DHT22;9939;49.246;9.106;2024-03-23T03:45:38;11.90;99.90
19586;DHT22;9939;49.246;9.106;2024-03-23T03:48:04;11.90;99.90
19586;DHT22;9939;49.246;9.106;2024-03-23T03:50:31;11.80;99.90
19586;DHT22;9939;49.246;9.106;2024-03-23T03:52:57;11.90;99.90
19586;DHT22;9939;49.246;9.106;2024-03-23T03:55:23;11.90;99.90
19586;DHT22;9939;49.246;9.106;2024-03-23T03:57:49;11.90;99.90
19586;DHT22;9939;49.246;9.106;2024-03-23T04:00:15;11.90;99.90
19586;DHT22;9939;49.246;9.106;2024-03-23T04:02:41;11.90;99.90
19586;DHT22;9939;49.246;9.106;2024-03-23T04:05:07;12.10;99.90
19586;DHT22;9939;49.246;9.106;2024-03-23T04:07:34;12.10;99.90
19586;DHT22;9939;49.246;9.106;2024-03-23T04:10:00;12.00;99.90
19586;DHT22;9939;49.246;9.106;2024-03-23T04:12:26;12.10;99.90
19586;DHT22;9939;49.246;9.106;2024-03-23T04:14:52;12.20;99.90
19586;DHT22;9939;49.246;9.106;2024-03-23T04:17:19;12.10;99.90
19586;DHT22;9939;49.246;9.106;2024-03-23T04:19:45;12.30;99.90
19586;DHT22;9939;49.246;9.106;2024-03-23T04:22:11;12.30;99.90
19586;DHT22;9939;49.246;9.106;2024-03-23T04:24:38;12.20;99.90
19586;DHT22;9939;49.246;9.106;2024-03-23T04:27:04;12.30;99.90
19586;DHT22;9939;49.246;9.106;2024-03-23T04:29:30;12.30;99.90
19586;DHT22;9939;49.246;9.106;2024-03-23T04:31:56;12.30;99.90
19586;DHT22;9939;49.246;9.106;2024-03-23T04:34:22;12.30;99.90
19586;DHT22;9939;49.246;9.106;2024-03-23T04:36:51;12.30;99.90
19586;DHT22;9939;49.246;9.106;2024-03-23T04:39:17;12.30;99.90
19586;DHT22;9939;49.246;9.106;2024-03-23T04:41:43;12.30;99.90
19586;DHT22;9939;49.246;9.106;2024-03-23T04:44:09;12.30;99.90
19586;DHT22;9939;49.246;9.106;2024-03-23T04:46:36;12.30;99.90
19586;DHT22;9939;49.246;9.106;2024-03-23T04:49:02;12.30;99.90
19586;DHT22;9939;49.246;9.106;2024-03-23T04:51:35;12.20;99.90
19586;DHT22;9939;49.246;9.106;2024-03-23T04:54:03;12.20;99.90
19586;DHT22;9939;49.246;9.106;2024-03-23T04:56:31;12.10;99.90
19586;DHT22;9939;49.246;9.106;2024-03-23T04:58:57;12.10;99.90
19586;DHT22;9939;49.246;9.106;2024-03-23T05:01:28;12.00;99.90
19586;DHT22;9939;49.246;9.106;2024-03-23T05:03:54;12.00;99.90
19586;DHT22;9939;49.246;9.106;2024-03-23T05:06:20;12.00;99.90
19586;DHT22;9939;49.246;9.106;2024-03-23T05:08:46;12.00;99.90
19586;DHT22;9939;49.246;9.106;2024-03-23T05:11:12;12.00;99.90
19586;DHT22;9939;49.246;9.106;2024-03-23T05:13:38;11.90;99.90
19586;DHT22;9939;49.246;9.106;2024-03-23T05:16:04;11.80;99.90
19586;DHT22;9939;49.246;9.106;2024-03-23T05:18:30;11.60;99.90
19586;DHT22;9939;49.246;9.106;2024-03-23T05:20:57;11.40;99.90
19586;DHT22;9939;49.246;9.106;2024-03-23T05:23:24;11.10;99.90
19586;DHT22;9939;49.246;9.106;2024-03-23T05:25:50;10.90;99.90
19586;DHT22;9939;49.246;9.106;2024-03-23T05:28:18;10.80;99.90
19586;DHT22;9939;49.246;9.106;2024-03-23T05:30:44;10.70;99.90
19586;DHT22;9939;49.246;9.106;2024-03-23T05:33:10;10.70;99.90
19586;DHT22;9939;49.246;9.106;2024-03-23T05:35:36;10.60;99.90
19586;DHT22;9939;49.246;9.106;2024-03-23T05:38:02;10.60;99.90
19586;DHT22;9939;49.246;9.106;2024-03-23T05:40:28;10.60;99.90
19586;DHT22;9939;49.246;9.106;2024-03-23T05:42:54;10.50;99.90
19586;DHT22;9939;49.246;9.106;2024-03-23T05:45:22;10.40;99.90
19586;DHT22;9939;49.246;9.106;2024-03-23T05:47:48;10.30;99.90
19586;DHT22;9939;49.246;9.106;2024-03-23T05:50:14;10.20;99.90
19586;DHT22;9939;49.246;9.106;2024-03-23T05:52:41;10.10;99.90
19586;DHT22;9939;49.246;9.106;2024-03-23T05:55:09;10.10;99.90
19586;DHT22;9939;49.246;9.106;2024-03-23T05:57:35;9.90;99.90
19586;DHT22;9939;49.246;9.106;2024-03-23T06:00:01;9.80;99.90
19586;DHT22;9939;49.246;9.106;2024-03-23T06:02:37;9.70;99.90
19586;DHT22;9939;49.246;9.106;2024-03-23T06:05:03;9.60;99.90
19586;DHT22;9939;49.246;9.106;2024-03-23T06:07:30;9.60;99.90
19586;DHT22;9939;49.246;9.106;2024-03-23T06:09:57;9.50;99.90
19586;DHT22;9939;49.246;9.106;2024-03-23T06:12:23;9.50;99.90
19586;DHT22;9939;49.246;9.106;2024-03-23T06:14:49;9.30;99.90
19586;DHT22;9939;49.246;9.106;2024-03-23T06:17:15;9.30;99.90
19586;DHT22;9939;49.246;9.106;2024-03-23T06:19:41;9.40;99.90
19586;DHT22;9939;49.246;9.106;2024-03-23T06:22:07;9.50;99.90
19586;DHT22;9939;49.246;9.106;2024-03-23T06:24:33;9.50;99.90
19586;DHT22;9939;49.246;9.106;2024-03-23T06:26:59;9.50;99.90
19586;DHT22;9939;49.246;9.106;2024-03-23T06:29:26;9.60;99.90
19586;DHT22;9939;49.246;9.106;2024-03-23T06:31:54;9.70;99.90
19586;DHT22;9939;49.246;9.106;2024-03-23T06:34:20;9.60;99.90
19586;DHT22;9939;49.246;9.106;2024-03-23T06:36:48;9.40;99.90
19586;DHT22;9939;49.246;9.106;2024-03-23T06:39:16;9.20;99.90
19586;DHT22;9939;49.246;9.106;2024-03-23T06:41:42;9.00;99.90
19586;DHT22;9939;49.246;9.106;2024-03-23T06:44:09;8.90;99.90
19586;DHT22;9939;49.246;9.106;2024-03-23T06:46:35;8.70;99.90
19586;DHT22;9939;49.246;9.106;2024-03-23T06:49:01;8.50;99.90
19586;DHT22;9939;49.246;9.106;2024-03-23T06:51:27;8.40;99.90
19586;DHT22;9939;49.246;9.106;2024-03-23T06:53:53;8.40;99.90
19586;DHT22;9939;49.246;9.106;2024-03-23T06:56:19;8.40;99.90
19586;DHT22;9939;49.246;9.106;2024-03-23T06:58:46;8.30;99.90
19586;DHT22;9939;49.246;9.106;2024-03-23T07:01:11;8.20;99.90
19586;DHT22;9939;49.246;9.106;2024-03-23T07:03:37;8.10;99.90
19586;DHT22;9939;49.246;9.106;2024-03-23T07:06:04;8.10;99.90
19586;DHT22;9939;49.246;9.106;2024-03-23T07:08:30;8.10;99.90
19586;DHT22;9939;49.246;9.106;2024-03-23T07:10:56;8.00;99.90
19586;DHT22;9939;49.246;9.106;2024-03-23T07:13:22;8.00;99.90
19586;DHT22;9939;49.246;9.106;2024-03-23T07:15:52;8.00;99.90
19586;DHT22;9939;49.246;9.106;2024-03-23T07:18:18;8.10;99.90
19586;DHT22;9939;49.246;9.106;2024-03-23T07:20:52;8.20;99.90
19586;DHT22;9939;49.246;9.106;2024-03-23T07:23:18;8.30;99.90
19586;DHT22;9939;49.246;9.106;2024-03-23T07:25:44;8.40;99.90
19586;DHT22;9939;49.246;9.106;2024-03-23T07:28:11;8.40;99.90
19586;DHT22;9939;49.246;9.106;2024-03-23T07:30:37;8.60;99.90
19586;DHT22;9939;49.246;9.106;2024-03-23T07:33:03;8.80;99.90
19586;DHT22;9939;49.246;9.106;2024-03-23T07:35:29;8.80;99.90
19586;DHT22;9939;49.246;9.106;2024-03-23T07:37:55;8.80;99.90
19586;DHT22;9939;49.246;9.106;2024-03-23T07:40:21;8.70;99.90
19586;DHT22;9939;49.246;9.106;2024-03-23T07:42:48;8.70;99.90
19586;DHT22;9939;49.246;9.106;2024-03-23T07:45:14;8.80;99.90
19586;DHT22;9939;49.246;9.106;2024-03-23T07:47:40;8.90;99.90
19586;DHT22;9939;49.246;9.106;2024-03-23T07:50:06;9.10;99.90
19586;DHT22;9939;49.246;9.106;2024-03-23T07:52:32;9.50;99.90
19586;DHT22;9939;49.246;9.106;2024-03-23T07:54:58;9.70;99.90
19586;DHT22;9939;49.246;9.106;2024-03-23T07:57:25;10.20;99.90
19586;DHT22;9939;49.246;9.106;2024-03-23T07:59:51;10.30;99.90
19586;DHT22;9939;49.246;9.106;2024-03-23T08:02:17;10.30;99.90
19586;DHT22;9939;49.246;9.106;2024-03-23T08:04:44;9.90;99.90
19586;DHT22;9939;49.246;9.106;2024-03-23T08:07:09;10.20;99.90
19586;DHT22;9939;49.246;9.106;2024-03-23T08:09:35;10.90;99.90
19586;DHT22;9939;49.246;9.106;2024-03-23T08:12:01;11.00;99.90
19586;DHT22;9939;49.246;9.106;2024-03-23T08:14:28;10.50;99.90
19586;DHT22;9939;49.246;9.106;2024-03-23T08:16:54;10.50;99.90
19586;DHT22;9939;49.246;9.106;2024-03-23T08:19:20;10.50;99.90
19586;DHT22;9939;49.246;9.106;2024-03-23T08:21:46;10.30;99.90
19586;DHT22;9939;49.246;9.106;2024-03-23T08:24:12;10.40;99.90
19586;DHT22;9939;49.246;9.106;2024-03-23T08:26:39;10.40;99.90
19586;DHT22;9939;49.246;9.106;2024-03-23T08:29:05;10.90;99.90
19586;DHT22;9939;49.246;9.106;2024-03-23T08:31:31;11.90;99.90
19586;DHT22;9939;49.246;9.106;2024-03-23T08:33:57;12.50;99.90
19586;DHT22;9939;49.246;9.106;2024-03-23T08:36:23;11.80;99.90
19586;DHT22;9939;49.246;9.106;2024-03-23T08:38:49;11.10;99.90
19586;DHT22;9939;49.246;9.106;2024-03-23T08:41:19;10.20;99.90
19586;DHT22;9939;49.246;9.106;2024-03-23T08:43:45;9.50;99.90
19586;DHT22;9939;49.246;9.106;2024-03-23T08:46:15;9.50;99.90
19586;DHT22;9939;49.246;9.106;2024-03-23T08:48:46;9.60;99.90
19586;DHT22;9939;49.246;9.106;2024-03-23T08:51:16;9.80;99.90
19586;DHT22;9939;49.246;9.106;2024-03-23T08:53:42;10.00;99.90
19586;DHT22;9939;49.246;9.106;2024-03-23T08:56:09;11.00;99.90
19586;DHT22;9939;49.246;9.106;2024-03-23T08:58:36;11.80;99.90
19586;DHT22;9939;49.246;9.106;2024-03-23T09:01:09;12.00;99.90
19586;DHT22;9939;49.246;9.106;2024-03-23T09:03:36;12.60;99.90
19586;DHT22;9939;49.246;9.106;2024-03-23T09:06:15;13.70;99.90
19586;DHT22;9939;49.246;9.106;2024-03-23T09:08:41;14.10;99.90
19586;DHT22;9939;49.246;9.106;2024-03-23T09:11:10;14.60;99.90
19586;DHT22;9939;49.246;9.106;2024-03-23T09:13:37;15.30;99.90
19586;DHT22;9939;49.246;9.106;2024-03-23T09:16:05;15.70;99.90
19586;DHT22;9939;49.246;9.106;2024-03-23T09:18:35;15.60;99.90
19586;DHT22;9939;49.246;9.106;2024-03-23T09:21:03;14.40;99.90
19586;DHT22;9939;49.246;9.106;2024-03-23T09:23:29;14.60;99.90
19586;DHT22;9939;49.246;9.106;2024-03-23T09:25:56;16.00;99.90
19586;DHT22;9939;49.246;9.106;2024-03-23T09:28:22;17.60;99.90
19586;DHT22;9939;49.246;9.106;2024-03-23T09:30:48;16.20;99.90
19586;DHT22;9939;49.246;9.106;2024-03-23T09:33:14;16.80;99.90
19586;DHT22;9939;49.246;9.106;2024-03-23T09:35:43;16.20;99.90
19586;DHT22;9939;49.246;9.106;2024-03-23T09:38:10;16.60;99.90
19586;DHT22;9939;49.246;9.106;2024-03-23T09:40:43;15.90;99.90
19586;DHT22;9939;49.246;9.106;2024-03-23T09:43:09;14.30;99.90
19586;DHT22;9939;49.246;9.106;2024-03-23T09:45:40;12.60;99.90
19586;DHT22;9939;49.246;9.106;2024-03-23T09:48:10;12.80;99.90
19586;DHT22;9939;49.246;9.106;2024-03-23T09:50:43;12.70;99.90
19586;DHT22;9939;49.246;9.106;2024-03-23T09:53:13;12.50;99.90
19586;DHT22;9939;49.246;9.106;2024-03-23T09:55:42;12.20;99.90
19586;DHT22;9939;49.246;9.106;2024-03-23T09:58:08;11.50;99.90
19586;DHT22;9939;49.246;9.106;2024-03-23T10:00:38;11.50;99.90
19586;DHT22;9939;49.246;9.106;2024-03-23T10:03:04;11.70;99.90
19586;DHT22;9939;49.246;9.106;2024-03-23T10:05:32;13.50;99.90
19586;DHT22;9939;49.246;9.106;2024-03-23T10:10:41;15.30;99.90
19586;DHT22;9939;49.246;9.106;2024-03-23T10:13:07;14.70;99.90
19586;DHT22;9939;49.246;9.106;2024-03-23T10:15:36;13.40;99.90
19586;DHT22;9939;49.246;9.106;2024-03-23T10:18:23;12.50;99.90
19586;DHT22;9939;49.246;9.106;2024-03-23T10:23:38;12.00;99.90
19586;DHT22;9939;49.246;9.106;2024-03-23T10:26:22;12.00;99.90
19586;DHT22;9939;49.246;9.106;2024-03-23T10:28:55;11.70;99.90
19586;DHT22;9939;49.246;9.106;2024-03-23T10:31:31;11.50;99.90
19586;DHT22;9939;49.246;9.106;2024-03-23T10:33:57;11.70;99.90
19586;DHT22;9939;49.246;9.106;2024-03-23T10:36:24;11.90;99.90
19586;DHT22;9939;49.246;9.106;2024-03-23T10:38:54;11.70;99.90
19586;DHT22;9939;49.246;9.106;2024-03-23T10:41:21;11.50;99.90
19586;DHT22;9939;49.246;9.106;2024-03-23T10:43:48;11.20;99.90
19586;DHT22;9939;49.246;9.106;2024-03-23T10:46:15;10.80;99.90
19586;DHT22;9939;49.246;9.106;2024-03-23T10:48:41;10.40;99.90
19586;DHT22;9939;49.246;9.106;2024-03-23T10:51:10;10.30;99.90
19586;DHT22;9939;49.246;9.106;2024-03-23T10:53:36;10.50;99.90
19586;DHT22;9939;49.246;9.106;2024-03-23T10:56:06;10.60;99.90
19586;DHT22;9939;49.246;9.106;2024-03-23T10:58:42;10.80;99.90
19586;DHT22;9939;49.246;9.106;2024-03-23T11:01:13;11.10;99.90
19586;DHT22;9939;49.246;9.106;2024-03-23T11:03:44;11.90;99.90
19586;DHT22;9939;49.246;9.106;2024-03-23T11:06:10;13.40;99.90
19586;DHT22;9939;49.246;9.106;2024-03-23T11:08:40;14.00;99.90
19586;DHT22;9939;49.246;9.106;2024-03-23T11:11:21;14.10;99.90
19586;DHT22;9939;49.246;9.106;2024-03-23T11:13:50;13.80;99.90
19586;DHT22;9939;49.246;9.106;2024-03-23T11:16:24;14.30;99.90
19586;DHT22;9939;49.246;9.106;2024-03-23T11:18:51;16.60;99.90
19586;DHT22;9939;49.246;9.106;2024-03-23T11:21:52;17.20;99.90
19586;DHT22;9939;49.246;9.106;2024-03-23T11:24:22;16.10;99.90
19586;DHT22;9939;49.246;9.106;2024-03-23T11:26:51;15.40;99.90
19586;DHT22;9939;49.246;9.106;2024-03-23T11:29:17;14.90;99.90
19586;DHT22;9939;49.246;9.106;2024-03-23T11:31:51;16.20;99.90
19586;DHT22;9939;49.246;9.106;2024-03-23T11:34:17;17.10;99.90
19586;DHT22;9939;49.246;9.106;2024-03-23T11:36:44;17.30;99.90
19586;DHT22;9939;49.246;9.106;2024-03-23T11:39:18;17.20;99.90
19586;DHT22;9939;49.246;9.106;2024-03-23T11:41:48;15.50;99.90
19586;DHT22;9939;49.246;9.106;2024-03-23T11:44:15;14.80;99.90
19586;DHT22;9939;49.246;9.106;2024-03-23T11:46:42;13.90;99.90
19586;DHT22;9939;49.246;9.106;2024-03-23T11:49:26;13.60;99.90
19586;DHT22;9939;49.246;9.106;2024-03-23T11:51:54;13.40;99.90
19586;DHT22;9939;49.246;9.106;2024-03-23T11:54:22;13.60;99.90
19586;DHT22;9939;49.246;9.106;2024-03-23T11:59:38;15.10;99.90
19586;DHT22;9939;49.246;9.106;2024-03-23T12:02:08;15.30;99.90
19586;DHT22;9939;49.246;9.106;2024-03-23T12:04:36;14.00;99.90
19586;DHT22;9939;49.246;9.106;2024-03-23T12:07:12;13.40;99.90
19586;DHT22;9939;49.246;9.106;2024-03-23T12:09:43;14.40;99.90
19586;DHT22;9939;49.246;9.106;2024-03-23T12:12:13;15.60;99.90
19586;DHT22;9939;49.246;9.106;2024-03-23T12:14:41;15.70;99.90
19586;DHT22;9939;49.246;9.106;2024-03-23T12:17:14;15.80;99.90
19586;DHT22;9939;49.246;9.106;2024-03-23T12:19:42;15.70;99.90
19586;DHT22;9939;49.246;9.106;2024-03-23T12:22:08;16.00;99.90
19586;DHT22;9939;49.246;9.106;2024-03-23T12:24:35;16.30;99.90
19586;DHT22;9939;49.246;9.106;2024-03-23T12:27:02;15.80;99.90
19586;DHT22;9939;49.246;9.106;2024-03-23T12:29:29;15.60;99.90
19586;DHT22;9939;49.246;9.106;2024-03-23T12:31:59;15.50;99.90
19586;DHT22;9939;49.246;9.106;2024-03-23T12:34:26;15.00;99.90
19586;DHT22;9939;49.246;9.106;2024-03-23T12:36:52;15.90;99.90
19586;DHT22;9939;49.246;9.106;2024-03-23T12:39:18;16.50;99.90
19586;DHT22;9939;49.246;9.106;2024-03-23T12:41:46;16.90;99.90
19586;DHT22;9939;49.246;9.106;2024-03-23T12:44:12;16.20;99.90
19586;DHT22;9939;49.246;9.106;2024-03-23T12:46:39;17.00;98.00
19586;DHT22;9939;49.246;9.106;2024-03-23T12:49:05;15.00;99.60
19586;DHT22;9939;49.246;9.106;2024-03-23T12:51:32;16.60;99.10
19586;DHT22;9939;49.246;9.106;2024-03-23T12:53:58;17.80;98.10
19586;DHT22;9939;49.246;9.106;2024-03-23T12:56:24;16.50;99.20
19586;DHT22;9939;49.246;9.106;2024-03-23T12:58:50;14.80;99.90
19586;DHT22;9939;49.246;9.106;2024-03-23T13:01:20;13.00;99.90
19586;DHT22;9939;49.246;9.106;2024-03-23T13:03:47;11.60;99.90
19586;DHT22;9939;49.246;9.106;2024-03-23T13:06:13;11.10;99.90
19586;DHT22;9939;49.246;9.106;2024-03-23T13:08:39;10.50;99.90
19586;DHT22;9939;49.246;9.106;2024-03-23T13:11:09;10.30;99.90
19586;DHT22;9939;49.246;9.106;2024-03-23T13:13:37;9.60;99.90
19586;DHT22;9939;49.246;9.106;2024-03-23T13:16:04;9.10;99.90
19586;DHT22;9939;49.246;9.106;2024-03-23T13:18:31;8.70;99.90
19586;DHT22;9939;49.246;9.106;2024-03-23T13:20:58;8.50;99.90
19586;DHT22;9939;49.246;9.106;2024-03-23T13:23:24;8.60;99.90
19586;DHT22;9939;49.246;9.106;2024-03-23T13:25:52;8.70;99.90
19586;DHT22;9939;49.246;9.106;2024-03-23T13:28:19;9.30;99.90
19586;DHT22;9939;49.246;9.106;2024-03-23T13:30:53;11.90;99.90
19586;DHT22;9939;49.246;9.106;2024-03-23T13:33:19;12.30;99.90
19586;DHT22;9939;49.246;9.106;2024-03-23T13:35:52;12.20;99.90
19586;DHT22;9939;49.246;9.106;2024-03-23T13:38:20;14.80;99.90
19586;DHT22;9939;49.246;9.106;2024-03-23T13:40:53;15.10;99.90
19586;DHT22;9939;49.246;9.106;2024-03-23T13:43:20;14.30;99.90
19586;DHT22;9939;49.246;9.106;2024-03-23T13:45:52;12.80;99.90
19586;DHT22;9939;49.246;9.106;2024-03-23T13:48:20;11.10;99.90
19586;DHT22;9939;49.246;9.106;2024-03-23T13:50:47;9.60;99.90
19586;DHT22;9939;49.246;9.106;2024-03-23T13:53:16;8.70;99.90
19586;DHT22;9939;49.246;9.106;2024-03-23T13:55:48;7.60;99.90
19586;DHT22;9939;49.246;9.106;2024-03-23T13:58:15;6.70;99.90
19586;DHT22;9939;49.246;9.106;2024-03-23T14:00:41;7.00;99.90
19586;DHT22;9939;49.246;9.106;2024-03-23T14:03:09;9.10;99.90
19586;DHT22;9939;49.246;9.106;2024-03-23T14:05:36;12.10;99.90
19586;DHT22;9939;49.246;9.106;2024-03-23T14:08:05;12.90;99.90
19586;DHT22;9939;49.246;9.106;2024-03-23T14:10:31;13.40;99.90
19586;DHT22;9939;49.246;9.106;2024-03-23T14:12:57;16.00;99.90
19586;DHT22;9939;49.246;9.106;2024-03-23T14:15:26;16.20;99.90
19586;DHT22;9939;49.246;9.106;2024-03-23T14:17:52;15.20;99.90
19586;DHT22;9939;49.246;9.106;2024-03-23T14:20:21;12.80;99.90
19586;DHT22;9939;49.246;9.106;2024-03-23T14:22:48;11.80;99.90
19586;DHT22;9939;49.246;9.106;2024-03-23T14:25:14;10.90;99.90
19586;DHT22;9939;49.246;9.106;2024-03-23T14:27:41;12.30;99.90
19586;DHT22;9939;49.246;9.106;2024-03-23T14:30:07;15.30;99.90
19586;DHT22;9939;49.246;9.106;2024-03-23T14:32:34;17.80;99.90
19586;DHT22;9939;49.246;9.106;2024-03-23T14:35:01;19.70;99.90
19586;DHT22;9939;49.246;9.106;2024-03-23T14:37:28;16.40;99.90
19586;DHT22;9939;49.246;9.106;2024-03-23T14:39:57;17.80;99.90
19586;DHT22;9939;49.246;9.106;2024-03-23T14:42:24;19.20;99.90
19586;DHT22;9939;49.246;9.106;2024-03-23T14:44:51;18.10;99.90
19586;DHT22;9939;49.246;9.106;2024-03-23T14:47:17;15.90;99.90
19586;DHT22;9939;49.246;9.106;2024-03-23T14:49:47;13.30;99.90
19586;DHT22;9939;49.246;9.106;2024-03-23T14:52:13;11.90;99.90
19586;DHT22;9939;49.246;9.106;2024-03-23T14:54:40;11.20;99.90
19586;DHT22;9939;49.246;9.106;2024-03-23T14:57:06;10.50;99.90
19586;DHT22;9939;49.246;9.106;2024-03-23T14:59:35;10.40;99.90
19586;DHT22;9939;49.246;9.106;2024-03-23T15:02:01;10.90;99.90
19586;DHT22;9939;49.246;9.106;2024-03-23T15:04:27;11.50;99.90
19586;DHT22;9939;49.246;9.106;2024-03-23T15:06:53;15.20;99.90
19586;DHT22;9939;49.246;9.106;2024-03-23T15:09:19;17.30;99.90
19586;DHT22;9939;49.246;9.106;2024-03-23T15:11:45;15.50;99.90
19586;DHT22;9939;49.246;9.106;2024-03-23T15:14:11;14.60;99.90
19586;DHT22;9939;49.246;9.106;2024-03-23T15:16:37;14.80;99.90
19586;DHT22;9939;49.246;9.106;2024-03-23T15:19:04;16.10;99.90
19586;DHT22;9939;49.246;9.106;2024-03-23T15:21:32;16.40;99.90
19586;DHT22;9939;49.246;9.106;2024-03-23T15:23:58;16.50;99.90
19586;DHT22;9939;49.246;9.106;2024-03-23T15:26:24;18.10;99.90
19586;DHT22;9939;49.246;9.106;2024-03-23T15:28:50;18.90;99.90
19586;DHT22;9939;49.246;9.106;2024-03-23T15:31:22;17.40;99.90
19586;DHT22;9939;49.246;9.106;2024-03-23T15:33:48;17.30;99.90
19586;DHT22;9939;49.246;9.106;2024-03-23T15:36:14;18.40;99.90
19586;DHT22;9939;49.246;9.106;2024-03-23T15:38:40;18.20;99.90
19586;DHT22;9939;49.246;9.106;2024-03-23T15:41:06;18.00;99.90
19586;DHT22;9939;49.246;9.106;2024-03-23T15:43:33;17.50;99.90
19586;DHT22;9939;49.246;9.106;2024-03-23T15:46:04;17.10;99.90
19586;DHT22;9939;49.246;9.106;2024-03-23T15:48:31;18.10;99.90
19586;DHT22;9939;49.246;9.106;2024-03-23T15:50:59;17.60;99.90
19586;DHT22;9939;49.246;9.106;2024-03-23T15:53:26;17.20;99.90
19586;DHT22;9939;49.246;9.106;2024-03-23T15:56:03;16.30;99.90
19586;DHT22;9939;49.246;9.106;2024-03-23T15:58:31;16.50;99.90
19586;DHT22;9939;49.246;9.106;2024-03-23T16:01:05;16.70;99.90
19586;DHT22;9939;49.246;9.106;2024-03-23T16:03:32;16.00;99.90
19586;DHT22;9939;49.246;9.106;2024-03-23T16:06:00;14.10;99.90
19586;DHT22;9939;49.246;9.106;2024-03-23T16:08:27;12.10;99.90
19586;DHT22;9939;49.246;9.106;2024-03-23T16:10:53;11.10;99.90
19586;DHT22;9939;49.246;9.106;2024-03-23T16:13:20;10.20;99.90
19586;DHT22;9939;49.246;9.106;2024-03-23T16:15:55;9.40;99.90
19586;DHT22;9939;49.246;9.106;2024-03-23T16:18:22;8.90;99.90
19586;DHT22;9939;49.246;9.106;2024-03-23T16:20:56;8.70;99.90
19586;DHT22;9939;49.246;9.106;2024-03-23T16:23:22;8.60;99.90
19586;DHT22;9939;49.246;9.106;2024-03-23T16:25:53;8.50;99.90
19586;DHT22;9939;49.246;9.106;2024-03-23T16:28:29;8.50;99.90
19586;DHT22;9939;49.246;9.106;2024-03-23T16:33:27;8.20;99.90
19586;DHT22;9939;49.246;9.106;2024-03-23T16:36:00;7.50;99.90
19586;DHT22;9939;49.246;9.106;2024-03-23T16:38:27;6.50;99.90
19586;DHT22;9939;49.246;9.106;2024-03-23T16:41:07;5.80;99.90
19586;DHT22;9939;49.246;9.106;2024-03-23T16:43:35;5.40;99.90
19586;DHT22;9939;49.246;9.106;2024-03-23T16:46:06;5.10;99.90
19586;DHT22;9939;49.246;9.106;2024-03-23T16:48:33;5.10;99.90
19586;DHT22;9939;49.246;9.106;2024-03-23T16:51:03;4.70;99.90
19586;DHT22;9939;49.246;9.106;2024-03-23T16:53:30;4.40;99.90
19586;DHT22;9939;49.246;9.106;2024-03-23T16:55:57;4.30;99.90